Time;durP1;ratioP1;P1;durP2;ratioP2;P2;SDS_P1;SDS_P2;PMS_P1;PMS_P2;Temp;Humidity;BMP_temperature;BMP_pressure;BME280_temperature;BME280_humidity;BME280_pressure;Samples;Min_cycle;Max_cycle;Signal;HPM_P1;HPM_P2
2022/07/07 00:01:31;;;;;;;1999.90;999.90;;;15.90;99.90;;;;;;5041379;28;20846;-68
2022/07/07 00:04:00;;;;;;;1999.90;999.90;;;15.90;99.90;;;;;;5031916;28;20556;-67
2022/07/07 00:06:27;;;;;;;1999.90;999.90;;;16.00;99.90;;;;;;5030485;28;20451;-68
2022/07/07 00:08:54;;;;;;;1999.90;999.90;;;16.00;99.90;;;;;;5025879;28;20931;-69
2022/07/07 00:11:22;;;;;;;1999.90;999.90;;;15.80;99.90;;;;;;5035454;28;20472;-68
2022/07/07 00:13:49;;;;;;;1999.90;999.90;;;15.70;99.90;;;;;;5032574;28;20494;-69
2022/07/07 00:16:17;;;;;;;1999.90;999.90;;;15.60;99.90;;;;;;5029770;28;20509;-68
2022/07/07 00:18:44;;;;;;;1999.90;999.90;;;15.70;99.90;;;;;;5033675;28;20466;-68
2022/07/07 00:21:11;;;;;;;1999.90;999.90;;;15.80;99.90;;;;;;5037576;28;20458;-69
2022/07/07 00:23:38;;;;;;;1999.90;999.90;;;15.60;99.90;;;;;;5030190;28;20491;-69
2022/07/07 00:26:04;;;;;;;1999.90;999.90;;;15.50;99.90;;;;;;5028661;28;20888;-68
2022/07/07 00:28:31;;;;;;;1999.90;999.90;;;15.60;99.90;;;;;;5028794;28;20459;-69
2022/07/07 00:30:58;;;;;;;1999.90;999.90;;;15.60;99.90;;;;;;5033593;28;20513;-68
2022/07/07 00:33:27;;;;;;;1999.90;999.90;;;15.70;99.90;;;;;;5031664;28;20487;-68
2022/07/07 00:35:54;;;;;;;1999.90;999.90;;;15.70;99.90;;;;;;5038861;28;20466;-69
2022/07/07 00:38:21;;;;;;;1999.90;999.90;;;15.70;99.90;;;;;;5034245;28;20588;-69
2022/07/07 00:40:50;;;;;;;1999.90;999.90;;;15.70;99.90;;;;;;5024359;28;20954;-68
2022/07/07 00:43:17;;;;;;;1999.90;999.90;;;15.70;99.90;;;;;;5031899;28;21073;-69
2022/07/07 00:45:46;;;;;;;1999.90;999.90;;;15.70;99.90;;;;;;5040859;28;20466;-68
2022/07/07 00:48:13;;;;;;;1999.90;999.90;;;15.70;99.90;;;;;;5030340;28;20957;-69
2022/07/07 00:50:42;;;;;;;1999.90;999.90;;;15.80;99.90;;;;;;5034166;28;20520;-68
2022/07/07 00:53:08;;;;;;;1999.90;999.90;;;15.80;99.90;;;;;;5030266;28;20560;-68
2022/07/07 00:55:35;;;;;;;1999.90;999.90;;;15.90;99.90;;;;;;5029517;28;20463;-69
2022/07/07 00:58:02;;;;;;;1999.90;999.90;;;16.00;99.90;;;;;;5028682;28;21028;-69
2022/07/07 01:00:29;;;;;;;1999.90;999.90;;;16.10;99.90;;;;;;5033692;28;20524;-69
2022/07/07 01:02:55;;;;;;;1999.90;999.90;;;15.90;99.90;;;;;;5028100;28;20514;-68
2022/07/07 01:05:24;;;;;;;1999.90;999.90;;;15.90;99.90;;;;;;5027955;28;20459;-68
2022/07/07 01:07:53;;;;;;;1999.90;999.90;;;15.90;99.90;;;;;;5025090;28;20467;-69
2022/07/07 01:10:19;;;;;;;1999.90;999.90;;;15.80;99.90;;;;;;5029186;28;20459;-69
2022/07/07 01:12:46;;;;;;;1999.90;999.90;;;15.90;99.90;;;;;;5029172;28;20907;-69
2022/07/07 01:15:14;;;;;;;1999.90;999.90;;;16.00;99.90;;;;;;5033595;28;20459;-68
2022/07/07 01:17:41;;;;;;;1999.90;999.90;;;16.00;99.90;;;;;;5033841;28;20535;-70
2022/07/07 01:20:10;;;;;;;1999.90;999.90;;;16.00;99.90;;;;;;5037596;28;20977;-69
2022/07/07 01:22:38;;;;;;;1999.90;999.90;;;16.00;99.90;;;;;;5032450;28;20491;-68
2022/07/07 01:25:07;;;;;;;1999.90;999.90;;;15.90;99.90;;;;;;5028424;28;20533;-68
2022/07/07 01:27:34;;;;;;;1999.90;999.90;;;16.00;99.90;;;;;;5036282;28;20455;-69
2022/07/07 01:30:01;;;;;;;1999.90;999.90;;;16.00;99.90;;;;;;5042094;28;20467;-67
2022/07/07 01:32:28;;;;;;;1999.90;999.90;;;16.00;99.90;;;;;;5030335;28;21088;-68
2022/07/07 01:34:55;;;;;;;1999.90;999.90;;;16.00;99.90;;;;;;5034153;28;20988;-68
2022/07/07 01:37:24;;;;;;;1999.90;999.90;;;16.10;99.90;;;;;;5033291;28;20581;-68
2022/07/07 01:39:52;;;;;;;1999.90;999.90;;;16.00;99.90;;;;;;5032784;28;20556;-69
2022/07/07 01:42:20;;;;;;;1999.90;999.90;;;15.90;99.90;;;;;;5032687;28;21068;-69
2022/07/07 01:44:50;;;;;;;1999.90;999.90;;;15.70;99.90;;;;;;5040297;28;20903;-68
2022/07/07 01:47:18;;;;;;;1999.90;999.90;;;15.70;99.90;;;;;;5033773;28;20542;-68
2022/07/07 01:49:44;;;;;;;1999.90;999.90;;;15.70;99.90;;;;;;5032785;28;20466;-68
2022/07/07 01:52:11;;;;;;;1999.90;999.90;;;15.80;99.90;;;;;;5031096;28;21044;-69
2022/07/07 01:54:39;;;;;;;1999.90;999.90;;;15.80;99.90;;;;;;5040831;28;20467;-69
2022/07/07 01:57:07;;;;;;;1999.90;999.90;;;15.80;99.90;;;;;;5034208;28;20519;-68
2022/07/07 01:59:36;;;;;;;1999.90;999.90;;;15.80;99.90;;;;;;5029112;28;20869;-68
2022/07/07 02:02:02;;;;;;;1999.90;999.90;;;15.80;99.90;;;;;;5037799;28;20520;-68
2022/07/07 02:04:29;;;;;;;1999.90;999.90;;;15.70;99.90;;;;;;5032287;28;20490;-69
2022/07/07 02:06:56;;;;;;;1999.90;999.90;;;15.80;99.90;;;;;;5032616;28;20459;-69
2022/07/07 02:09:23;;;;;;;1999.90;999.90;;;15.80;99.90;;;;;;5034183;28;20472;-68
2022/07/07 02:11:49;;;;;;;1999.90;999.90;;;15.80;99.90;;;;;;5040034;28;20458;-69
2022/07/07 02:14:16;;;;;;;1999.90;999.90;;;15.90;99.90;;;;;;5037163;28;20912;-68
2022/07/07 02:16:44;;;;;;;1999.90;999.90;;;15.90;99.90;;;;;;5040352;28;20455;-68
2022/07/07 02:19:11;;;;;;;1999.90;999.90;;;15.90;99.90;;;;;;5031609;28;20509;-68
2022/07/07 02:21:38;;;;;;;1999.90;999.90;;;15.80;99.90;;;;;;5035938;28;20463;-68
2022/07/07 02:24:05;;;;;;;1999.90;999.90;;;15.70;99.90;;;;;;5040097;28;20494;-67
2022/07/07 02:26:33;;;;;;;1999.90;999.90;;;15.60;99.90;;;;;;5035855;28;20464;-69
2022/07/07 02:28:59;;;;;;;1999.90;999.90;;;15.70;99.90;;;;;;5037394;28;20466;-69
2022/07/07 02:31:26;;;;;;;1999.90;999.90;;;15.60;99.90;;;;;;5035824;28;20459;-69
2022/07/07 02:33:54;;;;;;;1999.90;999.90;;;15.60;99.90;;;;;;5033198;28;20475;-69
2022/07/07 02:36:20;;;;;;;1999.90;999.90;;;15.60;99.90;;;;;;5031336;28;20459;-69
2022/07/07 02:38:49;;;;;;;1999.90;999.90;;;15.60;99.90;;;;;;5032732;28;20479;-69
2022/07/07 02:41:16;;;;;;;1999.90;999.90;;;15.50;99.90;;;;;;5035090;28;20472;-68
2022/07/07 02:43:43;;;;;;;1999.90;999.90;;;15.50;99.90;;;;;;5032314;28;20483;-68
2022/07/07 02:46:09;;;;;;;1999.90;999.90;;;15.60;99.90;;;;;;5030807;28;21020;-68
2022/07/07 02:48:36;;;;;;;1999.90;999.90;;;15.60;99.90;;;;;;5029030;28;20459;-67
2022/07/07 02:51:04;;;;;;;1999.90;999.90;;;15.60;99.90;;;;;;5035026;28;20466;-68
2022/07/07 02:53:30;;;;;;;1999.90;999.90;;;15.50;99.90;;;;;;5031917;28;20486;-68
2022/07/07 02:55:57;;;;;;;1999.90;999.90;;;15.60;99.90;;;;;;5036567;28;20965;-68
2022/07/07 02:58:24;;;;;;;1999.90;999.90;;;15.50;99.90;;;;;;5034810;28;20499;-68
2022/07/07 03:00:54;;;;;;;1999.90;999.90;;;15.30;99.90;;;;;;5035028;28;20454;-68
2022/07/07 03:03:21;;;;;;;1999.90;999.90;;;15.30;99.90;;;;;;5038715;28;20478;-68
2022/07/07 03:05:47;;;;;;;1999.90;999.90;;;15.30;99.90;;;;;;5035108;28;20508;-68
2022/07/07 03:08:15;;;;;;;1999.90;999.90;;;15.20;99.90;;;;;;5033609;28;20459;-68
2022/07/07 03:10:42;;;;;;;1999.90;999.90;;;15.10;99.90;;;;;;5033406;28;20459;-68
2022/07/07 03:13:09;;;;;;;1999.90;999.90;;;15.10;99.90;;;;;;5031867;28;20912;-68
2022/07/07 03:15:36;;;;;;;1999.90;999.90;;;15.00;99.90;;;;;;5042155;28;20467;-66
2022/07/07 03:18:03;;;;;;;1999.90;999.90;;;15.00;99.90;;;;;;5034260;28;20482;-67
2022/07/07 03:20:29;;;;;;;1999.90;999.90;;;14.90;99.90;;;;;;5036272;28;21036;-68
2022/07/07 03:22:56;;;;;;;1999.90;999.90;;;15.00;99.90;;;;;;5033205;28;20470;-68
2022/07/07 03:25:24;;;;;;;1999.90;999.90;;;15.00;99.90;;;;;;5033606;28;20837;-68
2022/07/07 03:27:50;;;;;;;1999.90;999.90;;;15.00;99.90;;;;;;5031531;28;20486;-69
2022/07/07 03:30:17;;;;;;;1999.90;999.90;;;15.00;99.90;;;;;;5029861;28;20467;-68
2022/07/07 03:32:44;;;;;;;1999.90;999.90;;;15.00;99.90;;;;;;5033202;28;20487;-68
2022/07/07 03:35:10;;;;;;;1999.90;999.90;;;14.90;99.90;;;;;;5034210;28;20485;-68
2022/07/07 03:37:37;;;;;;;1999.90;999.90;;;14.90;99.90;;;;;;5033191;28;20521;-68
2022/07/07 03:40:06;;;;;;;1999.90;999.90;;;14.90;99.90;;;;;;5032285;28;20901;-68
2022/07/07 03:42:34;;;;;;;1999.90;999.90;;;14.90;99.90;;;;;;5030704;28;20913;-68
2022/07/07 03:45:00;;;;;;;1999.90;999.90;;;15.00;99.90;;;;;;5031181;28;20455;-68
2022/07/07 03:47:27;;;;;;;1999.90;999.90;;;15.00;99.90;;;;;;5029431;28;20894;-68
2022/07/07 03:49:54;;;;;;;1999.90;999.90;;;15.00;99.90;;;;;;5034143;28;20509;-68
2022/07/07 03:52:20;;;;;;;1999.90;999.90;;;15.00;99.90;;;;;;5029733;28;20483;-68
2022/07/07 03:54:47;;;;;;;1999.90;999.90;;;14.90;99.90;;;;;;5030930;28;21009;-69
2022/07/07 03:57:14;;;;;;;1999.90;999.90;;;14.90;99.90;;;;;;5032590;28;20516;-68
2022/07/07 03:59:42;;;;;;;1999.90;999.90;;;15.00;99.90;;;;;;5028847;28;21072;-68
2022/07/07 04:02:09;;;;;;;1999.90;999.90;;;15.00;99.90;;;;;;5025808;28;20459;-69
2022/07/07 04:04:36;;;;;;;1999.90;999.90;;;15.10;99.90;;;;;;5033022;28;20463;-68
2022/07/07 04:07:03;;;;;;;1999.90;999.90;;;15.10;99.90;;;;;;5035618;28;20521;-68
2022/07/07 04:09:29;;;;;;;1999.90;999.90;;;15.00;99.90;;;;;;5035045;28;20521;-69
2022/07/07 04:11:56;;;;;;;1999.90;999.90;;;15.10;99.90;;;;;;5028184;28;20459;-68
2022/07/07 04:14:22;;;;;;;1999.90;999.90;;;15.20;99.90;;;;;;5030891;28;20459;-70
2022/07/07 04:16:50;;;;;;;1999.90;999.90;;;15.10;99.90;;;;;;5036634;28;20815;-68
2022/07/07 04:19:17;;;;;;;1999.90;999.90;;;15.10;99.90;;;;;;5033689;28;20475;-67
2022/07/07 04:21:43;;;;;;;1999.90;999.90;;;15.10;99.90;;;;;;5029461;28;20509;-68
2022/07/07 04:24:10;;;;;;;1999.90;999.90;;;15.30;99.90;;;;;;5031682;28;20493;-68
2022/07/07 04:26:37;;;;;;;1999.90;999.90;;;15.30;99.90;;;;;;5034996;28;20467;-68
2022/07/07 04:29:04;;;;;;;1999.90;999.90;;;15.30;99.90;;;;;;5030191;28;20463;-70
2022/07/07 04:31:30;;;;;;;1999.90;999.90;;;15.30;99.90;;;;;;5026730;28;20516;-68
2022/07/07 04:33:58;;;;;;;1999.90;999.90;;;15.40;99.90;;;;;;5024445;28;20471;-69
2022/07/07 04:36:25;;;;;;;1999.90;999.90;;;15.40;99.90;;;;;;5029620;28;20485;-69
2022/07/07 04:38:51;;;;;;;1999.90;999.90;;;15.50;99.90;;;;;;5032615;28;20541;-69
2022/07/07 04:41:18;;;;;;;1999.90;999.90;;;15.60;99.90;;;;;;5029671;28;20847;-69
2022/07/07 04:43:44;;;;;;;1999.90;999.90;;;15.60;99.90;;;;;;5032209;28;20483;-68
2022/07/07 04:46:11;;;;;;;1999.90;999.90;;;15.60;99.90;;;;;;5033729;28;20462;-68
2022/07/07 04:48:38;;;;;;;1999.90;999.90;;;15.70;99.90;;;;;;5030193;28;20463;-69
2022/07/07 04:51:06;;;;;;;1999.90;999.90;;;15.80;99.90;;;;;;5033572;28;20466;-68
2022/07/07 04:53:32;;;;;;;1999.90;999.90;;;15.70;99.90;;;;;;5029652;28;20561;-68
2022/07/07 04:55:59;;;;;;;1999.90;999.90;;;15.60;99.90;;;;;;5031371;28;20474;-68
2022/07/07 04:58:25;;;;;;;1999.90;999.90;;;15.60;99.90;;;;;;5029423;28;20884;-68
2022/07/07 05:00:52;;;;;;;1999.90;999.90;;;15.70;99.90;;;;;;5031774;28;20514;-69
2022/07/07 05:03:19;;;;;;;1999.90;999.90;;;15.80;99.90;;;;;;5030347;28;20478;-68
2022/07/07 05:05:45;;;;;;;1999.90;999.90;;;15.80;99.90;;;;;;5027068;28;20502;-68
2022/07/07 05:08:13;;;;;;;1999.90;999.90;;;15.90;99.90;;;;;;5011889;28;20440;-68
2022/07/07 05:10:40;;;;;;;1999.90;999.90;;;16.00;99.90;;;;;;5019043;28;20459;-68
2022/07/07 05:13:06;;;;;;;1999.90;999.90;;;16.00;99.90;;;;;;5035402;28;20471;-68
2022/07/07 05:15:33;;;;;;;1999.90;999.90;;;16.10;99.90;;;;;;5035672;28;20497;-69
2022/07/07 05:18:00;;;;;;;1999.90;999.90;;;16.10;99.90;;;;;;5035661;28;20443;-68
2022/07/07 05:20:26;;;;;;;1999.90;999.90;;;16.20;99.90;;;;;;5033960;28;20520;-69
2022/07/07 05:22:53;;;;;;;1999.90;999.90;;;16.20;99.90;;;;;;5029225;28;20502;-68
2022/07/07 05:25:21;;;;;;;1999.90;999.90;;;16.10;99.90;;;;;;5015838;28;20506;-68
2022/07/07 05:27:48;;;;;;;1999.90;999.90;;;16.00;99.90;;;;;;5015668;28;20865;-68
2022/07/07 05:30:16;;;;;;;1999.90;999.90;;;16.00;99.90;;;;;;5017318;28;20892;-69
2022/07/07 05:32:42;;;;;;;1999.90;999.90;;;16.10;99.90;;;;;;5034793;28;20920;-68
2022/07/07 05:35:09;;;;;;;1999.90;999.90;;;16.00;99.90;;;;;;5035145;28;20509;-68
2022/07/07 05:37:36;;;;;;;1999.90;999.90;;;15.90;99.90;;;;;;5035040;28;20447;-68
2022/07/07 05:40:03;;;;;;;1999.90;999.90;;;15.90;99.90;;;;;;5034018;28;20479;-68
2022/07/07 05:42:31;;;;;;;1999.90;999.90;;;15.90;99.90;;;;;;5035606;28;20463;-68
2022/07/07 05:44:57;;;;;;;1999.90;999.90;;;15.90;99.90;;;;;;5035310;28;20443;-68
2022/07/07 05:47:24;;;;;;;1999.90;999.90;;;15.90;99.90;;;;;;5034798;28;20950;-67
2022/07/07 05:49:51;;;;;;;1999.90;999.90;;;15.70;99.90;;;;;;5032877;28;20584;-68
2022/07/07 05:52:17;;;;;;;1999.90;999.90;;;15.90;99.90;;;;;;5026548;28;20537;-68
2022/07/07 05:54:44;;;;;;;1999.90;999.90;;;16.00;99.90;;;;;;5031060;28;20549;-67
2022/07/07 05:57:10;;;;;;;1999.90;999.90;;;15.90;99.90;;;;;;5029877;28;20854;-67
2022/07/07 05:59:38;;;;;;;1999.90;999.90;;;15.80;99.90;;;;;;5034820;28;20530;-68
2022/07/07 06:02:05;;;;;;;1999.90;999.90;;;15.80;99.90;;;;;;5029163;28;20625;-68
2022/07/07 06:04:31;;;;;;;1999.90;999.90;;;15.80;99.90;;;;;;5032453;28;20485;-68
2022/07/07 06:06:58;;;;;;;1999.90;999.90;;;15.80;99.90;;;;;;5032485;28;20459;-68
2022/07/07 06:09:25;;;;;;;1999.90;999.90;;;15.70;99.90;;;;;;5028430;28;20463;-68
2022/07/07 06:11:51;;;;;;;1999.90;999.90;;;15.70;99.90;;;;;;5035406;28;20510;-67
2022/07/07 06:14:18;;;;;;;1999.90;999.90;;;15.60;99.90;;;;;;5031625;28;20482;-68
2022/07/07 06:16:46;;;;;;;1999.90;999.90;;;15.50;99.90;;;;;;5032007;28;21075;-68
2022/07/07 06:19:14;;;;;;;1999.90;999.90;;;15.50;99.90;;;;;;5030810;28;20537;-68
2022/07/07 06:21:41;;;;;;;1999.90;999.90;;;15.50;99.90;;;;;;5031173;28;20460;-68
2022/07/07 06:24:09;;;;;;;1999.90;999.90;;;15.50;99.90;;;;;;5031062;28;20483;-67
2022/07/07 06:26:35;;;;;;;1999.90;999.90;;;15.50;99.90;;;;;;5031123;28;21011;-68
2022/07/07 06:29:02;;;;;;;1999.90;999.90;;;15.60;99.90;;;;;;5026853;28;20934;-68
2022/07/07 06:31:29;;;;;;;1999.90;999.90;;;15.60;99.90;;;;;;5031634;28;20498;-68
2022/07/07 06:33:57;;;;;;;1999.90;999.90;;;15.50;99.90;;;;;;5032350;28;20899;-68
2022/07/07 06:36:24;;;;;;;1999.90;999.90;;;15.50;99.90;;;;;;5034023;28;20504;-68
2022/07/07 06:38:50;;;;;;;1999.90;999.90;;;15.60;99.90;;;;;;5036494;28;20511;-67
2022/07/07 06:41:17;;;;;;;1999.90;999.90;;;15.60;99.90;;;;;;5025893;28;20495;-66
2022/07/07 06:43:44;;;;;;;1999.90;999.90;;;15.50;99.90;;;;;;5031842;28;20537;-68
2022/07/07 06:46:10;;;;;;;1999.90;999.90;;;15.50;99.90;;;;;;5035252;28;20521;-66
2022/07/07 06:48:37;;;;;;;1999.90;999.90;;;15.50;99.90;;;;;;5033742;28;20499;-68
2022/07/07 06:51:05;;;;;;;1999.90;999.90;;;15.60;99.90;;;;;;5032825;28;20537;-67
2022/07/07 06:53:32;;;;;;;1999.90;999.90;;;15.70;99.90;;;;;;5025021;28;21215;-68
2022/07/07 06:55:58;;;;;;;1999.90;999.90;;;15.80;99.90;;;;;;5029522;28;20533;-68
2022/07/07 06:58:25;;;;;;;1999.90;999.90;;;15.80;99.90;;;;;;5029415;28;20516;-68
2022/07/07 07:00:52;;;;;;;1999.90;999.90;;;15.70;99.90;;;;;;5028996;28;20475;-67
2022/07/07 07:03:19;;;;;;;1999.90;999.90;;;15.70;99.90;;;;;;5031045;28;20524;-68
2022/07/07 07:05:45;;;;;;;1999.90;999.90;;;15.70;99.90;;;;;;5030138;28;20502;-68
2022/07/07 07:08:13;;;;;;;1999.90;999.90;;;15.70;99.90;;;;;;5042961;28;20466;-68
2022/07/07 07:10:40;;;;;;;1999.90;999.90;;;15.70;99.90;;;;;;5025718;28;20493;-68
2022/07/07 07:13:06;;;;;;;1999.90;999.90;;;15.80;99.90;;;;;;5031733;28;22394;-67
2022/07/07 07:15:33;;;;;;;1999.90;999.90;;;16.00;99.90;;;;;;5027553;28;20513;-68
2022/07/07 07:17:59;;;;;;;1999.90;999.90;;;16.00;99.90;;;;;;5032962;28;20553;-68
2022/07/07 07:20:26;;;;;;;1999.90;999.90;;;16.10;99.90;;;;;;5033404;28;21030;-67
2022/07/07 07:22:52;;;;;;;1999.90;999.90;;;16.20;99.90;;;;;;5030021;28;20487;-68
2022/07/07 07:25:20;;;;;;;1999.90;999.90;;;16.20;99.90;;;;;;5024160;28;21060;-72
2022/07/07 07:27:47;;;;;;;1999.90;999.90;;;16.20;99.90;;;;;;5027118;28;20580;-68
2022/07/07 07:30:15;;;;;;;1999.90;999.90;;;16.30;99.90;;;;;;5026262;28;20460;-66
2022/07/07 07:32:42;;;;;;;1999.90;999.90;;;16.40;99.90;;;;;;5030853;28;20517;-67
2022/07/07 07:35:08;;;;;;;1999.90;999.90;;;16.50;99.90;;;;;;5032801;28;21014;-67
2022/07/07 07:37:35;;;;;;;1999.90;999.90;;;16.60;99.90;;;;;;5023568;28;20459;-67
2022/07/07 07:40:02;;;;;;;1999.90;999.90;;;16.60;99.90;;;;;;5022606;28;20487;-67
2022/07/07 07:42:30;;;;;;;1999.90;999.90;;;16.70;99.90;;;;;;5031302;28;21051;-67
2022/07/07 07:45:12;;;;;;;1999.90;999.90;;;16.80;99.90;;;;;;5032996;28;20505;-67
2022/07/07 07:47:40;;;;;;;1999.90;999.90;;;16.90;99.90;;;;;;5032963;28;20458;-67
2022/07/07 07:50:07;;;;;;;1999.90;999.90;;;16.80;99.90;;;;;;5024419;28;20459;-67
2022/07/07 07:52:34;;;;;;;1999.90;999.90;;;16.80;99.90;;;;;;5028478;28;20488;-67
2022/07/07 07:55:00;;;;;;;1999.90;999.90;;;16.90;99.90;;;;;;5023152;28;20463;-67
2022/07/07 07:57:27;;;;;;;1999.90;999.90;;;16.90;99.90;;;;;;5029952;28;20467;-68
2022/07/07 07:59:55;;;;;;;1999.90;999.90;;;17.00;99.90;;;;;;5027183;28;20531;-73
2022/07/07 08:02:22;;;;;;;1999.90;999.90;;;16.90;99.90;;;;;;5032377;28;20563;-72
2022/07/07 08:04:48;;;;;;;1999.90;999.90;;;17.00;99.90;;;;;;5027644;28;20459;-72
2022/07/07 08:07:15;;;;;;;1999.90;999.90;;;17.00;99.90;;;;;;5025271;28;20495;-75
2022/07/07 08:09:42;;;;;;;1999.90;999.90;;;17.20;99.90;;;;;;5020349;28;20454;-70
2022/07/07 08:12:08;;;;;;;1999.90;999.90;;;17.10;99.90;;;;;;5020510;28;20494;-72
2022/07/07 08:14:35;;;;;;;1999.90;999.90;;;17.20;99.90;;;;;;5026739;28;20526;-73
2022/07/07 08:17:03;;;;;;;1999.90;999.90;;;17.40;99.90;;;;;;5024198;28;20689;-75
2022/07/07 08:19:30;;;;;;;1999.90;999.90;;;17.40;99.90;;;;;;5022760;28;20617;-74
2022/07/07 08:21:56;;;;;;;1999.90;999.90;;;17.40;99.90;;;;;;5025479;28;20467;-74
2022/07/07 08:24:23;;;;;;;1999.90;999.90;;;17.50;99.90;;;;;;5026816;28;20463;-74
2022/07/07 08:26:50;;;;;;;1999.90;999.90;;;17.60;99.90;;;;;;5032216;28;20891;-73
2022/07/07 08:29:17;;;;;;;1999.90;999.90;;;17.80;99.90;;;;;;5026572;28;20482;-73
2022/07/07 08:31:43;;;;;;;1999.90;999.90;;;17.90;99.90;;;;;;5027060;28;20467;-73
2022/07/07 08:34:11;;;;;;;1999.90;999.90;;;17.90;99.90;;;;;;5028191;28;20534;-73
2022/07/07 08:36:38;;;;;;;1999.90;999.90;;;17.90;99.90;;;;;;5026038;28;20495;-74
2022/07/07 08:39:05;;;;;;;1999.90;999.90;;;17.90;99.90;;;;;;5025414;28;20494;-74
2022/07/07 08:41:32;;;;;;;1999.90;999.90;;;17.90;99.90;;;;;;5032421;28;21692;-74
2022/07/07 08:43:59;;;;;;;1999.90;999.90;;;18.00;99.90;;;;;;5027520;28;20517;-75
2022/07/07 08:46:25;;;;;;;1999.90;999.90;;;18.20;99.90;;;;;;5024476;28;20467;-75
2022/07/07 08:48:54;;;;;;;1999.90;999.90;;;18.30;99.90;;;;;;5026869;28;20508;-74
2022/07/07 08:51:23;;;;;;;1999.90;999.90;;;18.40;99.90;;;;;;5028003;28;20455;-74
2022/07/07 08:53:49;;;;;;;1999.90;999.90;;;18.80;99.90;;;;;;5024275;28;20471;-74
2022/07/07 08:56:16;;;;;;;1999.90;999.90;;;19.00;99.90;;;;;;5029845;28;20505;-73
2022/07/07 08:58:44;;;;;;;1999.90;999.90;;;18.90;99.90;;;;;;5028210;28;20469;-73
2022/07/07 09:01:10;;;;;;;1999.90;999.90;;;19.00;99.90;;;;;;5028640;28;20479;-72
2022/07/07 09:03:37;;;;;;;1999.90;999.90;;;19.10;99.90;;;;;;5036571;28;20483;-73
2022/07/07 09:06:04;;;;;;;1999.90;999.90;;;19.50;99.90;;;;;;5023968;28;20542;-71
2022/07/07 09:08:33;;;;;;;1999.90;999.90;;;19.90;99.90;;;;;;5023381;28;20676;-72
2022/07/07 09:11:01;;;;;;;1999.90;999.90;;;20.00;99.90;;;;;;5022694;28;20959;-73
2022/07/07 09:13:29;;;;;;;1999.90;999.90;;;20.10;99.90;;;;;;5027596;28;20474;-72
2022/07/07 09:16:00;;;;;;;1999.90;999.90;;;20.30;99.90;;;;;;5026802;28;20862;-71
2022/07/07 09:18:34;;;;;;;1999.90;999.90;;;20.20;99.90;;;;;;5026287;28;20464;-73
2022/07/07 09:21:03;;;;;;;1999.90;999.90;;;20.40;99.90;;;;;;5029783;28;20535;-72
2022/07/07 09:23:30;;;;;;;1999.90;999.90;;;20.70;99.90;;;;;;5029171;28;20499;-71
2022/07/07 09:25:58;;;;;;;1999.90;999.90;;;20.60;99.90;;;;;;5028167;28;21036;-73
2022/07/07 09:28:26;;;;;;;1999.90;999.90;;;20.90;99.90;;;;;;5024827;28;20467;-72
2022/07/07 09:30:53;;;;;;;1999.90;999.90;;;20.80;99.90;;;;;;5021571;28;20486;-72
2022/07/07 09:33:21;;;;;;;1999.90;999.90;;;21.20;99.90;;;;;;5027929;28;20483;-72
2022/07/07 09:38:34;;;;;;;1999.90;999.90;;;21.60;99.90;;;;;;5022225;28;20458;-71
2022/07/07 09:41:05;;;;;;;1999.90;999.90;;;21.60;99.90;;;;;;5032957;28;20861;-72
2022/07/07 09:43:34;;;;;;;1999.90;999.90;;;21.70;99.90;;;;;;5024929;28;21055;-73
2022/07/07 09:46:08;;;;;;;1999.90;999.90;;;21.70;99.90;;;;;;5028243;28;20979;-72
2022/07/07 09:48:36;;;;;;;1999.90;999.90;;;21.50;99.90;;;;;;5029216;28;20495;-73
2022/07/07 09:51:18;;;;;;;1999.90;999.90;;;21.80;99.90;;;;;;5022629;28;20544;-70
2022/07/07 09:53:57;;;;;;;1999.90;999.90;;;21.70;99.90;;;;;;5027038;28;21423;-71
2022/07/07 09:56:27;;;;;;;1999.90;999.90;;;21.30;99.90;;;;;;5025880;28;20516;-73
2022/07/07 09:58:54;;;;;;;1999.90;999.90;;;21.10;99.90;;;;;;5033100;28;20463;-72
2022/07/07 10:01:24;;;;;;;1999.90;999.90;;;21.00;99.90;;;;;;5037121;28;20556;-72
2022/07/07 10:03:52;;;;;;;1999.90;999.90;;;21.20;99.90;;;;;;5023075;28;21053;-72
2022/07/07 10:06:19;;;;;;;1999.90;999.90;;;21.00;99.90;;;;;;5032308;28;20513;-72
2022/07/07 10:08:51;;;;;;;1999.90;999.90;;;21.10;99.90;;;;;;5033607;28;20463;-73
2022/07/07 10:11:18;;;;;;;1999.90;999.90;;;20.90;99.90;;;;;;5022930;28;20956;-71
2022/07/07 10:13:49;;;;;;;1999.90;999.90;;;20.90;99.90;;;;;;5036332;28;20487;-71
2022/07/07 10:16:16;;;;;;;1999.90;999.90;;;21.20;99.90;;;;;;5035069;28;20984;-74
2022/07/07 10:18:43;;;;;;;1999.90;999.90;;;21.40;99.90;;;;;;5032114;28;20489;-73
2022/07/07 10:21:10;;;;;;;1999.90;999.90;;;21.50;99.90;;;;;;5034336;28;20569;-72
2022/07/07 10:23:37;;;;;;;1999.90;999.90;;;21.70;99.90;;;;;;5045784;28;20494;-73
2022/07/07 10:26:06;;;;;;;1999.90;999.90;;;21.50;99.90;;;;;;5068154;23;20517;-69
2022/07/07 10:28:54;;;;;;;1999.90;999.90;;;21.90;99.90;;;;;;5069481;28;20476;-69
2022/07/07 10:31:22;;;;;;;1999.90;999.90;;;22.10;99.90;;;;;;5068855;28;20458;-69
2022/07/07 10:33:54;;;;;;;1999.90;999.90;;;22.30;99.90;;;;;;5062866;28;20462;-70
2022/07/07 10:36:21;;;;;;;1999.90;999.90;;;22.40;99.90;;;;;;5053399;28;20525;-69
2022/07/07 10:38:52;;;;;;;1999.90;999.90;;;22.00;99.90;;;;;;5050882;28;20488;-69
2022/07/07 10:41:25;;;;;;;1999.90;999.90;;;21.80;99.90;;;;;;5051082;28;20485;-69
2022/07/07 10:44:06;;;;;;;1999.90;999.90;;;21.80;99.90;;;;;;5051326;28;20461;-69
2022/07/07 10:46:35;;;;;;;1999.90;999.90;;;21.70;99.90;;;;;;5049470;28;21017;-71
2022/07/07 10:49:12;;;;;;;1999.90;999.90;;;21.70;99.90;;;;;;5046751;28;20498;-70
2022/07/07 10:51:57;;;;;;;1999.90;999.90;;;21.40;99.90;;;;;;5045523;28;20466;-69
2022/07/07 10:54:36;;;;;;;1999.90;999.90;;;20.90;99.90;;;;;;5050543;28;22119;-70
2022/07/07 10:57:14;;;;;;;1999.90;999.90;;;20.50;99.90;;;;;;5050059;28;20478;-69
2022/07/07 11:00:11;;;;;;;1999.90;999.90;;;20.30;99.90;;;;;;5046248;28;20896;-69
2022/07/07 11:02:40;;;;;;;1999.90;999.90;;;20.00;99.90;;;;;;5049344;28;20459;-70
2022/07/07 11:05:34;;;;;;;1999.90;999.90;;;19.80;99.90;;;;;;5049288;28;20982;-70
2022/07/07 11:08:21;;;;;;;1999.90;999.90;;;20.00;99.90;;;;;;5012552;28;20466;-69
2022/07/07 11:10:54;;;;;;;1999.90;999.90;;;20.20;99.90;;;;;;5040104;28;20844;-70
2022/07/07 11:13:32;;;;;;;1999.90;999.90;;;20.00;99.90;;;;;;5049777;28;20473;-69
2022/07/07 11:16:15;;;;;;;1999.90;999.90;;;19.80;99.90;;;;;;5049773;28;20489;-70
2022/07/07 11:18:43;;;;;;;1999.90;999.90;;;19.50;99.90;;;;;;5045978;28;20488;-70
2022/07/07 11:21:10;;;;;;;1999.90;999.90;;;19.30;99.90;;;;;;5048498;28;20539;-70
2022/07/07 11:23:49;;;;;;;1999.90;999.90;;;19.10;99.90;;;;;;5049815;28;20470;-69
2022/07/07 11:26:17;;;;;;;1999.90;999.90;;;19.20;99.90;;;;;;5049413;28;20581;-69
2022/07/07 11:28:45;;;;;;;1999.90;999.90;;;19.20;99.90;;;;;;5050430;28;20458;-69
2022/07/07 11:31:14;;;;;;;1999.90;999.90;;;19.30;99.90;;;;;;5047630;28;20467;-69
2022/07/07 11:33:41;;;;;;;1999.90;999.90;;;19.70;99.90;;;;;;5045479;28;20516;-69
2022/07/07 11:36:12;;;;;;;1999.90;999.90;;;20.20;99.90;;;;;;5048242;28;21071;-69
2022/07/07 11:38:39;;;;;;;1999.90;999.90;;;20.40;99.90;;;;;;5047665;28;20462;-70
2022/07/07 11:41:06;;;;;;;1999.90;999.90;;;20.60;99.90;;;;;;5048059;28;20490;-69
2022/07/07 11:43:33;;;;;;;1999.90;999.90;;;20.60;99.90;;;;;;5047617;28;20474;-69
2022/07/07 11:46:00;;;;;;;1999.90;999.90;;;20.50;99.90;;;;;;5047645;28;20482;-70
2022/07/07 11:48:35;;;;;;;1999.90;999.90;;;20.40;99.90;;;;;;5048883;28;20475;-70
2022/07/07 11:51:01;;;;;;;1999.90;999.90;;;20.20;99.90;;;;;;5049272;28;20484;-68
2022/07/07 11:53:28;;;;;;;1999.90;999.90;;;20.00;99.90;;;;;;5048786;28;20466;-69
2022/07/07 11:55:55;;;;;;;1999.90;999.90;;;20.00;99.90;;;;;;5048813;28;20548;-70
2022/07/07 11:58:21;;;;;;;1999.90;999.90;;;19.90;99.90;;;;;;5047127;28;20458;-70
2022/07/07 12:00:52;;;;;;;1999.90;999.90;;;19.90;99.90;;;;;;5045105;28;20478;-68
2022/07/07 12:03:18;;;;;;;1999.90;999.90;;;19.70;99.90;;;;;;5048417;28;20512;-68
2022/07/07 12:05:47;;;;;;;1999.90;999.90;;;19.70;99.90;;;;;;5047651;28;20516;-69